createdAt,value
2017-10-12T00:00:46.282Z,14.40
2017-10-12T00:03:20.953Z,14.40
2017-10-12T00:05:55.504Z,14.30
2017-10-12T00:08:30.133Z,14.30
2017-10-12T00:11:04.636Z,14.30
2017-10-12T00:13:39.089Z,14.30
2017-10-12T00:16:13.605Z,14.30
2017-10-12T00:18:48.094Z,14.30
2017-10-12T00:21:23.114Z,14.20
2017-10-12T00:23:57.785Z,14.20
2017-10-12T00:26:33.141Z,14.10
2017-10-12T00:29:07.773Z,14.10
2017-10-12T00:31:42.323Z,14.10
2017-10-12T00:34:16.496Z,14.10
2017-10-12T00:36:50.947Z,14.00
2017-10-12T00:39:25.578Z,14.00
2017-10-12T00:42:00.243Z,14.00
2017-10-12T00:44:34.722Z,13.90
2017-10-12T00:47:09.262Z,13.90
2017-10-12T00:49:43.734Z,13.90
2017-10-12T00:52:18.399Z,13.80
2017-10-12T00:54:52.876Z,13.80
2017-10-12T00:57:27.431Z,13.80
2017-10-12T01:00:01.494Z,13.70
2017-10-12T01:02:35.426Z,13.70
2017-10-12T01:05:10.922Z,13.60
2017-10-12T01:07:45.242Z,13.60
2017-10-12T01:10:19.873Z,13.50
2017-10-12T01:12:54.538Z,13.50
2017-10-12T01:15:29.046Z,13.50
2017-10-12T01:18:03.531Z,13.40
2017-10-12T01:20:38.074Z,13.40
2017-10-12T01:23:11.986Z,13.40
2017-10-12T01:25:45.782Z,13.40
2017-10-12T01:28:19.898Z,13.30
2017-10-12T01:30:54.121Z,13.30
2017-10-12T01:33:27.857Z,13.30
2017-10-12T01:36:01.642Z,13.20
2017-10-12T01:38:35.627Z,13.20
2017-10-12T01:41:09.773Z,13.20
2017-10-12T01:43:43.637Z,13.20
2017-10-12T01:46:17.433Z,13.20
2017-10-12T01:48:56.096Z,13.20
2017-10-12T01:51:29.845Z,13.20
2017-10-12T01:54:04.122Z,13.20
2017-10-12T01:56:38.738Z,13.20
2017-10-12T01:59:13.319Z,13.20
2017-10-12T02:01:47.934Z,13.10
2017-10-12T02:04:22.062Z,13.20
2017-10-12T02:06:57.411Z,13.10
2017-10-12T02:09:31.850Z,13.00
2017-10-12T02:12:06.366Z,13.10
2017-10-12T02:14:40.889Z,13.10
2017-10-12T02:17:15.482Z,13.10
2017-10-12T02:19:50.019Z,13.10
2017-10-12T02:22:24.537Z,13.00
2017-10-12T02:24:59.049Z,13.00
2017-10-12T02:27:33.768Z,13.00
2017-10-12T02:30:08.405Z,12.90
2017-10-12T02:32:42.950Z,12.90
2017-10-12T02:35:17.291Z,12.80
2017-10-12T02:37:51.911Z,12.80
2017-10-12T02:40:26.111Z,12.80
2017-10-12T02:43:00.899Z,12.80
2017-10-12T02:45:35.477Z,12.80
2017-10-12T02:48:09.757Z,12.70
2017-10-12T02:50:44.353Z,12.70
2017-10-12T02:53:18.824Z,12.70
2017-10-12T02:55:53.410Z,12.70
2017-10-12T02:58:27.991Z,12.70
2017-10-12T03:01:02.240Z,12.70
2017-10-12T03:03:36.670Z,12.70
2017-10-12T03:06:11.234Z,12.70
2017-10-12T03:08:45.783Z,12.60
2017-10-12T03:11:20.430Z,12.60
2017-10-12T03:13:55.319Z,12.60
2017-10-12T03:16:29.064Z,12.60
2017-10-12T03:19:03.726Z,12.40
2017-10-12T03:21:38.318Z,12.30
2017-10-12T03:24:12.530Z,12.30
2017-10-12T03:26:47.926Z,12.30
2017-10-12T03:29:22.428Z,12.20
2017-10-12T03:31:57.023Z,12.30
2017-10-12T03:34:31.597Z,12.30
2017-10-12T03:37:05.974Z,12.30
2017-10-12T03:39:40.597Z,12.20
2017-10-12T03:42:15.155Z,12.20
2017-10-12T03:44:49.314Z,12.10
2017-10-12T03:47:23.588Z,12.20
2017-10-12T03:49:58.146Z,12.10
2017-10-12T03:52:33.482Z,12.10
2017-10-12T03:55:13.600Z,12.10
2017-10-12T03:57:48.306Z,12.10
2017-10-12T04:00:22.923Z,12.20
2017-10-12T04:02:57.438Z,12.20
2017-10-12T04:05:31.950Z,12.10
2017-10-12T04:08:06.502Z,12.00
2017-10-12T04:10:41.108Z,12.10
2017-10-12T04:13:15.713Z,12.10
2017-10-12T04:15:50.308Z,12.10
2017-10-12T04:18:24.938Z,12.10
2017-10-12T04:20:59.446Z,12.20
2017-10-12T04:23:33.674Z,12.10
2017-10-12T04:26:08.127Z,12.10
2017-10-12T04:28:42.566Z,12.10
2017-10-12T04:31:17.792Z,12.20
2017-10-12T04:33:52.422Z,12.10
2017-10-12T04:36:26.931Z,12.10
2017-10-12T04:39:01.513Z,12.20
2017-10-12T04:41:36.117Z,12.20
2017-10-12T04:44:10.722Z,12.20
2017-10-12T04:46:45.294Z,12.10
2017-10-12T04:49:19.956Z,12.10
2017-10-12T04:51:54.541Z,12.10
2017-10-12T04:54:29.083Z,12.10
2017-10-12T04:57:03.362Z,12.10
2017-10-12T04:59:38.590Z,12.00
2017-10-12T05:02:13.242Z,11.90
2017-10-12T05:04:47.857Z,12.00
2017-10-12T05:07:22.417Z,12.00
2017-10-12T05:09:56.999Z,12.00
2017-10-12T05:12:32.302Z,11.90
2017-10-12T05:15:12.865Z,11.90
2017-10-12T05:17:48.102Z,11.90
2017-10-12T05:20:22.666Z,11.90
2017-10-12T05:22:57.178Z,11.90
2017-10-12T05:25:31.625Z,11.90
2017-10-12T05:28:06.091Z,12.00
2017-10-12T05:30:40.466Z,12.00
2017-10-12T05:33:14.995Z,12.10
2017-10-12T05:35:49.696Z,12.10
2017-10-12T05:38:24.421Z,12.30
2017-10-12T05:40:58.974Z,12.50
2017-10-12T05:43:33.465Z,12.60
2017-10-12T05:46:08.010Z,12.80
2017-10-12T05:48:42.615Z,12.90
2017-10-12T05:51:17.171Z,13.00
2017-10-12T05:53:51.730Z,13.20
2017-10-12T05:56:26.326Z,13.30
2017-10-12T05:59:00.893Z,13.20
2017-10-12T06:01:35.385Z,13.20
2017-10-12T06:04:10.818Z,13.50
2017-10-12T06:06:45.466Z,13.40
2017-10-12T06:09:19.906Z,13.60
2017-10-12T06:11:54.463Z,13.70
2017-10-12T06:14:29.613Z,14.10
2017-10-12T06:17:04.034Z,14.10
2017-10-12T06:19:38.641Z,14.40
2017-10-12T06:22:13.127Z,14.50
2017-10-12T06:24:47.562Z,14.80
2017-10-12T06:27:22.010Z,15.10
2017-10-12T06:29:57.049Z,15.70
2017-10-12T06:32:31.497Z,15.60
2017-10-12T06:35:13.531Z,16.00
2017-10-12T06:37:47.979Z,16.40
2017-10-12T06:40:22.135Z,16.70
2017-10-12T06:42:56.788Z,16.90
2017-10-12T06:45:31.498Z,17.20
2017-10-12T06:48:05.938Z,17.40
2017-10-12T06:50:40.494Z,17.70
2017-10-12T06:53:15.095Z,18.00
2017-10-12T06:55:49.607Z,18.20
2017-10-12T06:58:24.189Z,18.40
2017-10-12T07:00:58.782Z,18.70
2017-10-12T07:03:33.222Z,19.00
2017-10-12T07:06:07.847Z,19.10
2017-10-12T07:08:42.294Z,19.20
2017-10-12T07:11:16.861Z,19.30
2017-10-12T07:13:51.411Z,19.30
2017-10-12T07:16:25.964Z,19.50
2017-10-12T07:19:00.465Z,19.60
2017-10-12T07:21:34.819Z,19.70
2017-10-12T07:24:09.360Z,20.00
2017-10-12T07:26:43.907Z,20.70
2017-10-12T07:29:18.542Z,22.10
2017-10-12T07:31:53.058Z,24.50
2017-10-12T07:34:27.622Z,27.20
2017-10-12T07:37:02.191Z,30.00
2017-10-12T07:39:36.794Z,32.90
2017-10-12T07:42:11.354Z,35.90
2017-10-12T07:44:46.141Z,38.70
2017-10-12T07:47:20.802Z,41.00
2017-10-12T07:49:55.370Z,43.10
2017-10-12T07:52:29.998Z,45.10
2017-10-12T07:57:47.716Z,49.10
2017-10-12T08:00:22.863Z,49.80
2017-10-12T08:02:57.283Z,49.80
2017-10-12T08:05:31.858Z,49.50
2017-10-12T08:08:06.351Z,47.50
2017-10-12T08:10:40.970Z,45.00
2017-10-12T08:13:15.633Z,42.50
2017-10-12T08:15:50.134Z,40.20
2017-10-12T08:18:25.338Z,39.30
2017-10-12T08:20:59.779Z,39.10
2017-10-12T08:23:34.445Z,39.50
2017-10-12T08:26:09.051Z,38.80
2017-10-12T08:28:43.499Z,37.30
2017-10-12T08:31:18.044Z,36.80
2017-10-12T08:33:52.515Z,38.80
2017-10-12T08:36:27.058Z,41.20
2017-10-12T08:39:01.635Z,43.30
2017-10-12T08:41:35.975Z,43.40
2017-10-12T08:44:10.523Z,41.80
2017-10-12T08:46:45.135Z,42.80
2017-10-12T08:49:19.583Z,42.20
2017-10-12T08:51:53.883Z,40.20
2017-10-12T08:54:29.102Z,37.30
2017-10-12T08:57:03.710Z,37.20
2017-10-12T08:59:38.298Z,38.80
2017-10-12T09:02:12.910Z,42.80
2017-10-12T09:04:48.314Z,46.90
2017-10-12T09:07:22.778Z,46.80
2017-10-12T09:09:57.414Z,49.00
2017-10-12T09:12:31.992Z,51.10
2017-10-12T09:15:13.966Z,52.80
2017-10-12T09:17:48.469Z,53.60
2017-10-12T09:20:22.963Z,54.20
2017-10-12T09:22:58.275Z,48.60
2017-10-12T09:25:32.842Z,48.40
2017-10-12T09:28:06.925Z,44.80
2017-10-12T09:30:41.022Z,41.40
2017-10-12T09:33:15.530Z,38.80
2017-10-12T09:35:50.182Z,36.90
2017-10-12T09:38:24.418Z,35.50
2017-10-12T09:40:58.227Z,34.50
2017-10-12T09:43:32.022Z,34.30
2017-10-12T09:46:06.955Z,35.90
2017-10-12T09:48:41.352Z,38.40
2017-10-12T09:51:15.197Z,38.60
2017-10-12T09:53:49.686Z,37.80
2017-10-12T09:56:24.230Z,36.20
2017-10-12T09:58:59.074Z,34.60
2017-10-12T10:01:33.516Z,34.10
2017-10-12T10:04:08.222Z,33.40
2017-10-12T10:06:42.880Z,32.30
2017-10-12T10:09:17.510Z,31.50
2017-10-12T10:11:52.035Z,30.60
2017-10-12T10:14:26.618Z,29.50
2017-10-12T10:17:02.020Z,29.10
2017-10-12T10:19:36.600Z,29.00
2017-10-12T10:22:11.242Z,28.30
2017-10-12T10:24:46.086Z,28.40
2017-10-12T10:27:20.778Z,26.90
2017-10-12T10:29:55.398Z,26.20
2017-10-12T10:32:29.916Z,27.40
2017-10-12T10:35:13.263Z,30.00
2017-10-12T10:37:47.846Z,32.50
2017-10-12T10:40:22.355Z,34.60
2017-10-12T10:42:57.021Z,39.50
2017-10-12T10:45:31.537Z,43.00
2017-10-12T10:48:06.191Z,46.40
2017-10-12T10:50:40.665Z,49.60
2017-10-12T10:53:15.293Z,50.60
2017-10-12T10:55:49.859Z,52.20
2017-10-12T10:58:24.246Z,53.10
2017-10-12T11:00:58.791Z,54.60
2017-10-12T11:03:33.387Z,55.90
2017-10-12T11:06:07.872Z,56.80
2017-10-12T11:08:42.422Z,57.20
2017-10-12T11:11:16.933Z,57.00
2017-10-12T11:13:51.513Z,55.90
2017-10-12T11:16:26.071Z,55.40
2017-10-12T11:19:00.912Z,55.80
2017-10-12T11:21:35.539Z,55.90
2017-10-12T11:24:10.154Z,55.10
2017-10-12T11:26:44.757Z,52.80
2017-10-12T11:29:19.260Z,51.30
2017-10-12T11:31:54.619Z,51.90
2017-10-12T11:34:29.107Z,51.80
2017-10-12T11:37:03.638Z,52.70
2017-10-12T11:39:38.313Z,54.30
2017-10-12T11:42:13.606Z,56.00
2017-10-12T11:44:48.183Z,55.90
2017-10-12T11:47:22.561Z,55.70
2017-10-12T11:49:56.949Z,55.70
2017-10-12T11:52:31.503Z,55.80
2017-10-12T11:55:14.245Z,54.00
2017-10-12T11:57:48.762Z,53.90
2017-10-12T12:00:23.222Z,53.00
2017-10-12T12:02:57.734Z,52.20
2017-10-12T12:05:32.287Z,50.70
2017-10-12T12:08:06.970Z,50.60
2017-10-12T12:10:41.610Z,50.50
2017-10-12T12:13:16.344Z,50.50
2017-10-12T12:15:50.891Z,49.60
2017-10-12T12:18:26.146Z,49.00
2017-10-12T12:21:00.798Z,49.00
2017-10-12T12:23:35.260Z,46.50
2017-10-12T12:26:09.813Z,44.00
2017-10-12T12:28:44.226Z,39.60
2017-10-12T12:31:18.852Z,37.60
2017-10-12T12:33:53.420Z,36.60
2017-10-12T12:36:27.912Z,35.30
2017-10-12T12:39:02.364Z,34.50
2017-10-12T12:41:36.998Z,35.00
2017-10-12T12:44:12.285Z,36.10
2017-10-12T12:46:46.867Z,36.00
2017-10-12T12:49:21.568Z,36.00
2017-10-12T12:51:56.103Z,35.40
2017-10-12T12:54:30.718Z,34.30
2017-10-12T12:57:05.362Z,33.10
2017-10-12T12:59:40.021Z,31.30
2017-10-12T13:02:14.567Z,30.20
2017-10-12T13:04:49.157Z,29.00
2017-10-12T13:07:24.867Z,27.20
2017-10-12T13:09:59.517Z,27.00
2017-10-12T13:12:34.143Z,26.30
2017-10-12T13:15:15.025Z,25.70
2017-10-12T13:17:49.449Z,25.10
2017-10-12T13:20:23.835Z,24.70
2017-10-12T13:22:58.481Z,24.20
2017-10-12T13:25:33.066Z,24.10
2017-10-12T13:28:07.622Z,23.70
2017-10-12T13:30:42.237Z,23.50
2017-10-12T13:33:16.666Z,23.30
2017-10-12T13:35:51.285Z,23.00
2017-10-12T13:38:25.840Z,22.80
2017-10-12T13:41:00.430Z,22.70
2017-10-12T13:43:35.015Z,22.50
2017-10-12T13:46:09.651Z,22.30
2017-10-12T13:48:43.371Z,22.20
2017-10-12T13:51:17.844Z,22.30
2017-10-12T13:53:52.497Z,22.20
2017-10-12T13:56:27.182Z,22.20
2017-10-12T13:59:01.871Z,22.20
2017-10-12T14:01:36.359Z,22.20
2017-10-12T14:04:11.738Z,22.90
2017-10-12T14:06:45.912Z,22.80
2017-10-12T14:09:20.195Z,23.30
2017-10-12T14:11:54.635Z,23.70
2017-10-12T14:14:28.947Z,24.20
2017-10-12T14:17:03.313Z,24.40
2017-10-12T14:19:37.760Z,24.40
2017-10-12T14:22:12.294Z,24.30
2017-10-12T14:24:46.973Z,24.20
2017-10-12T14:27:21.518Z,24.20
2017-10-12T14:29:55.739Z,24.00
2017-10-12T14:32:30.251Z,23.80
2017-10-12T14:35:10.450Z,23.50
2017-10-12T14:37:45.152Z,23.40
2017-10-12T14:40:19.710Z,23.40
2017-10-12T14:42:54.226Z,23.50
2017-10-12T14:45:28.771Z,23.40
2017-10-12T14:48:03.223Z,23.30
2017-10-12T14:50:37.782Z,23.20
2017-10-12T14:53:12.390Z,23.00
2017-10-12T14:55:46.874Z,22.80
2017-10-12T14:58:21.474Z,22.80
2017-10-12T15:00:56.076Z,22.60
2017-10-12T15:03:30.525Z,22.50
2017-10-12T15:06:04.970Z,22.40
2017-10-12T15:08:39.262Z,22.30
2017-10-12T15:11:13.879Z,22.30
2017-10-12T15:13:49.122Z,22.30
2017-10-12T15:16:23.598Z,22.20
2017-10-12T15:18:58.195Z,22.00
2017-10-12T15:21:32.402Z,21.90
2017-10-12T15:24:06.869Z,21.90
2017-10-12T15:26:41.407Z,21.80
2017-10-12T15:29:15.848Z,21.60
2017-10-12T15:31:50.342Z,21.50
2017-10-12T15:34:25.602Z,21.20
2017-10-12T15:37:00.063Z,21.10
2017-10-12T15:39:34.658Z,21.10
2017-10-12T15:42:09.280Z,21.00
2017-10-12T15:44:43.827Z,21.00
2017-10-12T15:47:18.958Z,20.90
2017-10-12T15:49:53.584Z,20.90
2017-10-12T15:52:28.120Z,20.90
2017-10-12T15:55:09.516Z,20.90
2017-10-12T15:57:44.933Z,20.80
2017-10-12T16:00:21.102Z,20.80
2017-10-12T16:02:55.674Z,20.70
2017-10-12T16:05:30.288Z,20.60
2017-10-12T16:08:04.926Z,20.60
2017-10-12T16:10:39.483Z,20.50
2017-10-12T16:13:13.782Z,20.40
2017-10-12T16:15:48.307Z,20.40
2017-10-12T16:18:22.760Z,20.30
2017-10-12T16:20:57.291Z,20.20
2017-10-12T16:23:31.903Z,20.20
2017-10-12T16:26:06.550Z,20.00
2017-10-12T16:28:41.008Z,20.00
2017-10-12T16:31:15.567Z,19.90
2017-10-12T16:33:50.563Z,19.90
2017-10-12T16:36:25.134Z,19.80
2017-10-12T16:39:00.376Z,19.50
2017-10-12T16:41:34.658Z,19.50
2017-10-12T16:44:09.276Z,19.50
2017-10-12T16:46:43.719Z,19.40
2017-10-12T16:49:18.199Z,19.40
2017-10-12T16:51:52.606Z,19.30
2017-10-12T16:54:27.206Z,19.30
2017-10-12T16:57:01.750Z,19.20
2017-10-12T16:59:36.367Z,19.10
2017-10-12T17:02:10.754Z,19.00
2017-10-12T17:04:45.405Z,18.90
2017-10-12T17:07:20.175Z,18.90
2017-10-12T17:09:54.819Z,18.90
2017-10-12T17:12:29.183Z,18.90
2017-10-12T17:17:44.495Z,18.90
2017-10-12T17:20:18.998Z,18.80
2017-10-12T17:22:53.443Z,18.80
2017-10-12T17:25:39.087Z,18.80
2017-10-12T17:28:13.663Z,18.70
2017-10-12T17:30:49.032Z,18.80
2017-10-12T17:33:23.298Z,18.70
2017-10-12T17:35:57.806Z,18.70
2017-10-12T17:38:32.206Z,18.70
2017-10-12T17:41:06.791Z,18.70
2017-10-12T17:43:41.254Z,18.70
2017-10-12T17:46:15.670Z,18.70
2017-10-12T17:48:50.090Z,18.70
2017-10-12T17:51:27.611Z,18.70
2017-10-12T17:54:36.754Z,18.70
2017-10-12T17:56:50.116Z,18.60
2017-10-12T17:59:30.165Z,18.60
2017-10-12T18:02:08.124Z,18.60
2017-10-12T18:07:17.263Z,18.60
2017-10-12T18:09:52.042Z,18.50
2017-10-12T18:12:26.615Z,18.50
2017-10-12T18:15:01.122Z,18.40
2017-10-12T18:17:35.678Z,18.40
2017-10-12T18:20:16.299Z,18.40
2017-10-12T18:22:50.762Z,18.40
2017-10-12T18:25:25.282Z,18.40
2017-10-12T18:27:59.834Z,18.40
2017-10-12T18:30:34.451Z,18.40
2017-10-12T18:33:08.867Z,18.40
2017-10-12T18:35:43.406Z,18.30
2017-10-12T18:38:18.826Z,18.30
2017-10-12T18:40:53.263Z,18.30
2017-10-12T18:43:27.850Z,18.30
2017-10-12T18:46:02.366Z,18.20
2017-10-12T18:48:37.043Z,18.20
2017-10-12T18:51:11.643Z,18.20
2017-10-12T18:53:46.264Z,18.20
2017-10-12T18:56:20.846Z,18.20
2017-10-12T18:58:55.275Z,18.30
2017-10-12T19:01:29.877Z,18.20
2017-10-12T19:04:04.539Z,18.20
2017-10-12T19:06:39.105Z,18.20
2017-10-12T19:09:13.594Z,18.20
2017-10-12T19:11:48.875Z,18.20
2017-10-12T19:14:23.357Z,18.20
2017-10-12T19:16:57.991Z,18.20
2017-10-12T19:19:32.671Z,18.20
2017-10-12T19:22:07.138Z,18.20
2017-10-12T19:24:41.569Z,18.10
2017-10-12T19:27:16.174Z,18.20
2017-10-12T19:29:51.031Z,18.30
2017-10-12T19:32:24.779Z,18.20
2017-10-12T19:34:59.259Z,18.10
2017-10-12T19:37:33.847Z,18.10
2017-10-12T19:40:14.522Z,18.00
2017-10-12T19:42:49.066Z,18.00
2017-10-12T19:45:23.698Z,18.00
2017-10-12T19:47:58.753Z,18.00
2017-10-12T19:50:32.893Z,17.90
2017-10-12T19:53:07.578Z,18.00
2017-10-12T19:55:42.154Z,18.00
2017-10-12T19:58:16.634Z,18.00
2017-10-12T20:00:51.163Z,18.00
2017-10-12T20:03:25.720Z,18.00
2017-10-12T20:06:00.366Z,18.00
2017-10-12T20:08:34.873Z,18.00
2017-10-12T20:11:09.274Z,17.90
2017-10-12T20:16:18.600Z,17.90
2017-10-12T20:18:53.419Z,17.90
2017-10-12T20:21:28.180Z,17.90
2017-10-12T20:26:37.019Z,17.90
2017-10-12T20:31:46.593Z,17.80
2017-10-12T20:34:21.077Z,17.80
2017-10-12T20:36:56.426Z,17.80
2017-10-12T20:39:31.077Z,17.70
2017-10-12T20:44:40.425Z,17.80
2017-10-12T20:47:15.218Z,17.70
2017-10-12T20:49:50.590Z,17.80
2017-10-12T20:52:25.312Z,17.70
2017-10-12T20:57:34.638Z,17.80
2017-10-12T21:00:15.019Z,17.80
2017-10-12T21:02:49.579Z,17.80
2017-10-12T21:05:24.442Z,17.70
2017-10-12T21:07:59.173Z,17.70
2017-10-12T21:10:33.799Z,17.60
2017-10-12T21:13:08.290Z,17.60
2017-10-12T21:15:42.534Z,17.70
2017-10-12T21:18:17.011Z,17.70
2017-10-12T21:20:51.606Z,17.60
2017-10-12T21:23:26.098Z,17.60
2017-10-12T21:26:00.630Z,17.60
2017-10-12T21:28:35.070Z,17.60
2017-10-12T21:31:09.591Z,17.50
2017-10-12T21:33:44.220Z,17.50
2017-10-12T21:36:18.751Z,17.60
2017-10-12T21:38:53.206Z,17.60
2017-10-12T21:41:27.742Z,17.60
2017-10-12T21:44:02.526Z,17.60
2017-10-12T21:46:37.146Z,17.60
2017-10-12T21:49:11.749Z,17.60
2017-10-12T21:51:46.350Z,17.60
2017-10-12T21:54:21.031Z,17.60
2017-10-12T21:56:55.771Z,17.60
2017-10-12T21:59:30.410Z,17.60
2017-10-12T22:02:05.044Z,17.50
2017-10-12T22:04:39.535Z,17.50
2017-10-12T22:07:14.099Z,17.40
2017-10-12T22:09:48.702Z,17.40
2017-10-12T22:12:23.223Z,17.40
2017-10-12T22:14:57.891Z,17.40
2017-10-12T22:17:32.488Z,17.30
2017-10-12T22:20:16.231Z,17.30
2017-10-12T22:22:50.886Z,17.40
2017-10-12T22:25:25.525Z,17.40
2017-10-12T22:28:00.117Z,17.30
2017-10-12T22:30:34.707Z,17.30
2017-10-12T22:33:09.308Z,17.30
2017-10-12T22:35:43.854Z,17.30
2017-10-12T22:38:18.510Z,17.20
2017-10-12T22:40:52.422Z,17.20
2017-10-12T22:43:26.935Z,17.20
2017-10-12T22:46:02.267Z,17.10
2017-10-12T22:48:36.787Z,17.10
2017-10-12T22:51:11.387Z,17.10
2017-10-12T22:53:46.026Z,17.10
2017-10-12T22:56:20.389Z,17.10
2017-10-12T22:58:55.030Z,17.00
2017-10-12T23:01:29.640Z,17.00
2017-10-12T23:04:04.170Z,17.00
2017-10-12T23:06:38.664Z,17.00
2017-10-12T23:09:13.202Z,17.00
2017-10-12T23:11:47.706Z,16.90
2017-10-12T23:14:21.865Z,16.90
2017-10-12T23:16:56.173Z,16.90
2017-10-12T23:19:30.702Z,16.90
2017-10-12T23:22:05.262Z,16.90
2017-10-12T23:24:39.726Z,16.80
2017-10-12T23:27:14.320Z,16.90
2017-10-12T23:29:48.761Z,16.90
2017-10-12T23:32:24.015Z,16.90
2017-10-12T23:34:58.542Z,16.80
2017-10-12T23:37:33.143Z,16.80
2017-10-12T23:40:14.206Z,16.80
2017-10-12T23:42:48.754Z,16.80
2017-10-12T23:45:22.990Z,16.80
2017-10-12T23:47:57.485Z,16.90
2017-10-12T23:50:32.018Z,16.90
2017-10-12T23:53:06.674Z,16.80
2017-10-12T23:55:41.235Z,16.80
2017-10-12T23:58:15.735Z,16.80
